Date,TemperatureHighF,TemperatureAvgF,TemperatureLowF,DewpointHighF,DewpointAvgF,DewpointLowF,HumidityHigh,HumidityAvg,HumidityLow,PressureMaxIn,PressureMinIn,WindSpeedMaxMPH,WindSpeedAvgMPH,GustSpeedMaxMPH,PrecipitationSumIn
2013-9-25,61.9,58.2,55.2,53.0,51.4,50.0,83,78,72,29.89,29.86,4,2,5,0.00
2013-9-26,80.8,67.4,55.7,61.0,55.8,51.0,85,68,49,29.89,29.79,18,7,25,0.00
2013-9-27,83.5,73.6,66.5,64.0,60.9,59.0,78,65,46,29.87,29.75,20,8,25,0.00
2013-9-28,74.3,61.5,47.7,63.0,54.3,45.0,93,78,60,29.89,29.57,14,6,20,0.24
2013-9-29,75.9,59.9,42.8,48.0,44.9,41.0,95,63,32,29.93,29.75,12,4,16,0.00
2013-9-30,79.4,68.4,59.6,52.0,49.3,45.0,63,52,37,29.75,29.55,13,6,21,0.00
2013-10-1,74.1,65.6,47.1,53.0,43.5,31.0,75,48,21,29.94,29.52,11,4,20,0.00
2013-10-2,73.8,56.9,39.7,54.0,42.3,35.0,94,65,24,30.02,29.83,21,4,21,0.43
2013-10-3,56.9,55.5,53.8,56.0,54.2,53.0,97,95,92,29.92,29.83,12,3,14,0.20
2013-10-4,53.7,53.7,53.7,53.0,53.0,53.0,96,96,96,29.92,29.92,4,4,7,0.00
2013-10-9,75.8,67.5,57.5,52.0,50.3,49.0,74,55,41,29.99,29.94,12,4,17,0.00
2013-10-10,77.2,62.9,51.6,53.0,49.0,45.0,81,62,37,30.00,29.84,15,5,21,0.00
2013-10-11,73.2,66.2,57.8,60.0,53.7,51.0,92,65,49,29.84,29.57,24,9,35,0.10
2013-10-12,61.9,50.2,42.5,59.0,44.0,40.0,94,80,64,30.15,29.64,15,3,26,0.03
2013-10-13,60.4,45.7,32.5,42.0,36.9,32.0,97,75,37,30.43,30.15,6,1,10,0.00
2013-10-14,53.6,45.7,36.1,46.0,38.7,34.0,94,78,55,30.40,29.98,13,3,19,0.43
2013-10-15,53.1,49.1,45.1,52.0,47.8,44.0,97,95,93,29.97,29.65,23,-5,26,1.19
2013-10-16,54.4,45.1,36.1,44.0,39.5,34.0,96,82,48,29.94,29.82,10,3,13,0.00
2013-10-17,55.8,45.5,38.4,46.0,40.5,36.0,95,83,56,29.86,29.77,14,2,14,0.59
2013-10-18,52.2,43.5,36.1,41.0,35.2,29.0,96,75,43,29.96,29.83,9,2,14,0.21
2013-10-19,48.0,39.4,31.0,39.0,35.4,30.0,95,86,52,29.83,29.68,7,2,10,0.02
2013-10-20,40.5,34.8,29.5,39.0,33.5,29.0,97,95,89,29.88,29.63,8,2,11,0.10
2013-10-21,38.8,34.1,27.6,33.0,24.2,21.0,88,68,54,29.96,29.88,11,3,16,0.00
2013-10-22,39.6,32.2,23.0,33.0,28.4,22.0,96,86,68,30.05,29.96,5,1,10,0.01
2013-10-23,36.7,33.8,31.9,32.0,26.6,20.0,94,76,57,30.12,30.00,11,2,16,0.01
2013-10-24,42.2,36.8,31.9,32.0,27.1,22.0,81,69,55,30.32,30.12,12,3,17,0.00
2013-10-25,56.7,50.4,36.7,43.0,37.6,30.0,80,62,54,30.32,29.77,13,4,18,0.00
2013-10-26,49.7,41.7,35.1,41.0,30.2,28.0,78,64,54,30.09,29.77,18,5,21,0.00
2013-10-27,56.3,41.4,29.3,34.0,30.1,27.0,92,67,43,30.16,29.82,13,3,21,0.00
2013-10-28,41.8,35.2,29.2,29.0,23.3,17.0,83,64,38,30.45,30.16,12,4,19,0.00
2013-10-29,37.9,34.5,29.0,35.0,28.4,24.0,93,78,70,30.44,30.11,9,3,12,0.06
2013-10-30,47.2,42.8,36.8,47.0,42.1,35.0,98,97,93,30.11,29.66,7,1,15,0.09
2013-10-31,47.3,42.2,39.1,47.0,41.3,38.0,99,96,91,29.65,29.39,6,2,11,0.07
2013-11-1,50.6,41.9,36.7,39.0,36.3,33.0,95,82,56,29.85,29.40,8,2,13,0.00
2013-11-2,49.5,37.7,28.7,36.0,30.6,27.0,94,77,47,30.10,29.85,7,1,11,0.00
2013-11-3,53.7,43.9,31.5,36.0,32.3,29.0,91,66,45,30.12,29.88,22,8,30,0.00
2013-11-4,48.5,43.4,31.4,44.0,36.8,30.0,97,79,57,30.13,29.81,16,6,27,0.11
2013-11-5,43.9,33.5,25.9,33.0,29.3,25.0,98,86,53,30.25,30.05,6,1,10,0.01
2013-11-6,37.8,31.9,26.6,31.0,27.8,24.0,96,85,66,30.17,30.04,8,2,12,0.15
2013-11-7,36.3,27.9,19.6,31.0,25.5,18.0,97,91,75,30.25,30.17,6,1,9,0.02
2013-11-8,44.2,33.8,20.0,38.0,27.6,19.0,97,80,58,30.21,29.60,15,4,23,0.12
2013-11-9,42.7,40.1,36.8,38.0,32.7,26.0,90,75,59,30.19,29.61,12,6,23,0.00
2013-11-10,41.5,36.8,28.1,32.0,28.9,25.0,88,74,62,30.33,30.10,12,2,21,0.00
2013-11-11,36.3,22.9,13.5,31.0,12.3,8.0,81,65,51,30.75,30.13,15,6,22,0.00
2013-11-12,28.4,19.3,10.3,14.0,9.4,6.0,83,67,43,30.82,30.46,8,2,12,0.00
2013-11-13,50.9,36.5,21.1,34.0,24.5,14.0,76,63,48,30.46,29.87,13,3,17,0.00
2013-11-14,52.6,39.9,30.8,38.0,33.7,30.0,96,79,58,29.87,29.74,6,1,10,0.00
2013-11-15,55.2,41.8,28.4,41.0,34.6,28.0,97,78,51,29.84,29.63,9,2,16,0.00
2013-11-16,47.7,44.3,41.8,47.0,41.5,35.0,98,90,72,29.62,29.22,12,4,16,0.07
2013-11-17,43.7,39.3,31.7,43.0,35.5,25.0,97,86,75,29.80,29.28,13,4,22,0.00
2013-11-18,33.2,27.7,18.8,24.0,20.6,17.0,92,75,61,30.28,29.81,18,4,20,0.00
2013-11-19,44.0,33.5,16.6,30.0,24.2,14.0,92,71,53,30.29,29.92,21,7,26,0.00
2013-11-20,44.0,41.3,36.6,35.0,29.9,26.0,92,66,51,30.04,29.88,19,7,20,0.00
2013-11-21,37.2,30.5,23.6,37.0,26.4,15.0,97,84,68,30.54,30.04,13,5,18,0.00
2013-11-22,33.5,21.8,12.0,16.0,9.7,3.0,84,63,29,30.66,30.47,13,4,18,0.00
2013-11-23,17.4,10.0,3.8,4.0,0.9,-3.0,84,68,42,30.88,30.67,9,3,14,0.00
2013-11-24,30.9,19.0,2.6,17.0,8.4,-1.0,87,65,48,30.76,30.00,16,5,24,0.00
2013-11-25,37.4,32.9,28.8,29.0,23.5,17.0,84,69,57,30.09,29.90,16,4,21,0.00
2013-11-26,29.0,19.2,10.3,19.0,7.4,3.0,78,60,48,30.42,30.09,18,6,21,0.00
2013-11-27,23.7,15.6,3.5,10.0,6.6,1.0,89,69,54,30.43,30.11,13,2,14,0.00
2013-11-28,25.2,19.8,6.3,14.0,10.7,3.0,88,68,57,30.55,30.11,8,2,16,0.00
2013-11-29,31.0,20.7,3.7,21.0,13.0,0.0,88,73,56,30.55,30.17,13,4,21,0.00
2013-11-30,39.8,30.0,18.5,27.0,23.0,16.0,92,76,60,30.19,30.04,5,1,7,0.00
2013-12-1,34.1,24.2,13.3,25.0,20.1,11.0,93,85,69,30.21,29.95,6,0,7,0.00
2013-12-2,37.8,31.9,24.8,33.0,29.2,22.0,96,89,78,29.94,29.60,12,4,15,0.17
2013-12-3,34.2,33.4,30.4,33.0,32.2,29.0,98,96,92,29.81,29.59,11,4,14,0.03
2013-12-4,30.4,26.4,13.3,29.0,24.8,9.0,96,94,83,29.80,29.48,10,4,17,0.00
2013-12-5,12.8,5.2,-1.9,9.0,-0.3,-6.0,85,78,70,30.38,29.70,12,4,20,0.00
2013-12-6,3.6,-3.7,-9.1,-4.0,-8.7,-13.0,87,79,68,30.72,30.39,7,2,10,0.00
2013-12-7,-0.2,-7.4,-15.2,-10.0,-12.8,-19.0,87,77,63,30.81,30.66,6,1,11,0.00
2013-12-8,9.9,3.2,-10.0,6.0,-0.1,-13.0,91,86,81,30.66,30.09,7,2,11,0.00
2013-12-9,7.9,-0.4,-5.7,6.0,-5.4,-10.0,91,80,68,30.16,29.93,9,2,15,0.00
2013-12-10,6.6,3.5,-1.2,2.0,-1.6,-5.0,88,79,68,30.35,29.84,9,2,15,0.00
2013-12-11,0.5,-4.5,-10.4,-6.0,-10.9,-15.0,81,74,63,30.63,30.36,9,2,13,0.00
2013-12-12,16.6,8.4,-5.3,11.0,3.0,-8.0,88,79,66,30.38,30.21,6,1,10,0.00
2013-12-13,15.7,11.6,8.4,11.0,6.3,4.0,87,79,75,30.35,30.19,10,4,19,0.00
2013-12-14,15.2,8.7,-1.1,9.0,4.2,-6.0,87,82,73,30.34,30.13,7,2,12,0.00
2013-12-15,1.9,-1.6,-3.9,-7.0,-9.4,-12.0,79,70,55,30.23,30.15,8,3,13,0.00
2013-12-16,20.5,7.6,-1.8,19.0,2.9,-10.0,93,81,67,30.20,29.94,6,2,13,0.00
2013-12-17,31.6,21.3,1.7,28.0,15.4,-1.0,90,78,62,30.14,29.89,11,4,18,0.00
2013-12-18,34.4,21.6,2.2,25.0,16.5,0.0,96,81,62,30.10,29.67,12,2,18,0.00
2013-12-19,22.5,16.2,13.5,19.0,11.0,7.0,88,80,71,30.12,29.83,11,4,16,0.00
2013-12-20,18.9,13.8,9.5,13.0,9.9,7.0,92,84,74,30.08,29.90,6,1,11,0.01
2013-12-21,20.9,17.1,12.3,15.0,12.9,9.0,88,83,76,30.05,29.90,7,2,12,0.00
2013-12-22,18.3,14.2,7.7,14.0,10.7,4.0,89,85,80,30.27,29.99,9,3,12,0.00
2013-12-23,7.2,-0.8,-9.2,4.0,-6.0,-14.0,86,78,73,30.58,30.27,8,3,13,0.00
2013-12-24,10.0,-1.4,-17.1,6.0,-6.8,-21.0,87,78,58,30.56,30.21,10,3,17,0.00
2013-12-25,23.4,14.8,8.8,19.0,10.9,5.0,90,84,72,30.20,30.09,12,2,16,0.00
2013-12-26,24.2,17.7,8.8,20.0,14.3,7.0,93,86,79,30.20,30.11,3,0,4,0.00
2013-12-27,39.3,26.8,5.9,31.0,23.2,4.0,96,87,69,30.20,29.90,13,2,14,0.08
2013-12-28,45.3,30.0,16.5,32.0,26.4,12.0,97,87,59,30.04,29.66,13,3,23,0.09
2013-12-29,15.7,-2.3,-16.3,11.0,-10.7,-20.0,83,68,50,30.37,30.06,17,6,23,0.00
2013-12-30,0.2,-7.3,-17.5,-5.0,-11.6,-22.0,86,81,76,30.38,30.28,5,1,8,0.00
2013-12-31,-3.9,-9.8,-16.8,-11.0,-14.5,-21.0,87,80,68,30.52,30.29,5,1,7,0.00
2014-1-1,-0.5,-5.1,-11.3,-9.0,-11.9,-16.0,79,72,67,30.60,30.50,5,2,8,0.00
2014-1-2,2.1,-7.9,-16.5,-10.0,-15.7,-20.0,85,70,46,30.60,30.45,5,1,7,0.00